sensor_id;sensor_type;location;lat;lon;timestamp;pressure;altitude;pressure_sealevel;temperature;humidity
41306;BME280;27051;50.376;19.152;2023-06-10T00:01:02;97886.40;;;18.20;100.00
41306;BME280;27051;50.376;19.152;2023-06-10T00:03:52;97883.61;;;18.17;100.00
41306;BME280;27051;50.376;19.152;2023-06-10T00:06:19;97885.76;;;18.21;100.00
41306;BME280;27051;50.376;19.152;2023-06-10T00:08:47;97885.21;;;18.24;100.00
41306;BME280;27051;50.376;19.152;2023-06-10T00:11:22;97887.55;;;18.25;100.00
41306;BME280;27051;50.376;19.152;2023-06-10T00:14:25;97886.29;;;18.28;100.00
41306;BME280;27051;50.376;19.152;2023-06-10T00:20:21;97890.90;;;18.20;99.96
41306;BME280;27051;50.376;19.152;2023-06-10T00:22:50;97892.93;;;18.19;99.84
41306;BME280;27051;50.376;19.152;2023-06-10T00:25:17;97894.95;;;18.15;99.65
41306;BME280;27051;50.376;19.152;2023-06-10T00:27:50;97894.51;;;18.14;99.82
41306;BME280;27051;50.376;19.152;2023-06-10T00:30:32;97894.58;;;18.14;99.65
41306;BME280;27051;50.376;19.152;2023-06-10T00:36:22;97894.91;;;18.05;99.04
41306;BME280;27051;50.376;19.152;2023-06-10T00:41:40;97896.14;;;17.90;98.51
41306;BME280;27051;50.376;19.152;2023-06-10T00:44:07;97903.13;;;17.89;98.65
41306;BME280;27051;50.376;19.152;2023-06-10T00:46:54;97904.83;;;17.89;98.65
41306;BME280;27051;50.376;19.152;2023-06-10T00:49:32;97900.10;;;17.83;97.95
41306;BME280;27051;50.376;19.152;2023-06-10T00:52:08;97901.10;;;17.76;97.98
41306;BME280;27051;50.376;19.152;2023-06-10T00:55:14;97900.80;;;17.74;97.99
41306;BME280;27051;50.376;19.152;2023-06-10T00:57:54;97895.61;;;17.80;98.65
41306;BME280;27051;50.376;19.152;2023-06-10T01:00:46;97901.98;;;17.82;98.02
41306;BME280;27051;50.376;19.152;2023-06-10T01:03:16;97907.34;;;17.80;97.73
41306;BME280;27051;50.376;19.152;2023-06-10T01:05:49;97911.59;;;17.79;97.67
41306;BME280;27051;50.376;19.152;2023-06-10T01:09:26;97911.66;;;17.78;97.67
41306;BME280;27051;50.376;19.152;2023-06-10T01:11:47;97912.52;;;17.77;97.62
41306;BME280;27051;50.376;19.152;2023-06-10T01:14:16;97911.83;;;17.84;98.05
41306;BME280;27051;50.376;19.152;2023-06-10T01:16:43;97909.49;;;17.88;98.27
41306;BME280;27051;50.376;19.152;2023-06-10T01:19:32;97912.20;;;17.94;98.13
41306;BME280;27051;50.376;19.152;2023-06-10T01:22:08;97910.79;;;17.99;97.88
41306;BME280;27051;50.376;19.152;2023-06-10T01:24:48;97907.92;;;18.01;97.44
41306;BME280;27051;50.376;19.152;2023-06-10T01:27:21;97903.02;;;18.00;97.11
41306;BME280;27051;50.376;19.152;2023-06-10T01:30:11;97905.34;;;18.00;96.76
41306;BME280;27051;50.376;19.152;2023-06-10T01:33:10;97906.36;;;18.01;96.75
41306;BME280;27051;50.376;19.152;2023-06-10T01:35:50;97905.58;;;18.03;96.82
41306;BME280;27051;50.376;19.152;2023-06-10T01:38:19;97905.41;;;18.07;96.92
41306;BME280;27051;50.376;19.152;2023-06-10T01:40:50;97904.02;;;18.05;96.26
41306;BME280;27051;50.376;19.152;2023-06-10T01:43:20;97910.15;;;18.05;96.31
41306;BME280;27051;50.376;19.152;2023-06-10T01:46:00;97906.59;;;18.03;96.06
41306;BME280;27051;50.376;19.152;2023-06-10T01:48:27;97910.77;;;18.04;95.98
41306;BME280;27051;50.376;19.152;2023-06-10T01:50:54;97909.23;;;18.05;95.95
41306;BME280;27051;50.376;19.152;2023-06-10T01:53:27;97911.79;;;18.03;95.89
41306;BME280;27051;50.376;19.152;2023-06-10T01:56:20;97911.09;;;18.03;95.89
41306;BME280;27051;50.376;19.152;2023-06-10T01:59:04;97915.59;;;18.07;95.98
41306;BME280;27051;50.376;19.152;2023-06-10T02:04:14;97923.50;;;18.08;95.62
41306;BME280;27051;50.376;19.152;2023-06-10T02:06:44;97926.23;;;18.08;95.44
41306;BME280;27051;50.376;19.152;2023-06-10T02:09:11;97925.69;;;18.08;95.56
41306;BME280;27051;50.376;19.152;2023-06-10T02:12:08;97928.17;;;18.09;95.50
41306;BME280;27051;50.376;19.152;2023-06-10T02:14:35;97929.27;;;18.08;95.24
41306;BME280;27051;50.376;19.152;2023-06-10T02:17:22;97934.39;;;18.07;95.18
41306;BME280;27051;50.376;19.152;2023-06-10T02:20:14;97929.72;;;18.10;95.10
41306;BME280;27051;50.376;19.152;2023-06-10T02:22:43;97930.65;;;18.10;95.07
41306;BME280;27051;50.376;19.152;2023-06-10T02:25:10;97934.07;;;18.09;94.92
41306;BME280;27051;50.376;19.152;2023-06-10T02:30:26;97938.26;;;18.11;94.86
41306;BME280;27051;50.376;19.152;2023-06-10T02:32:53;97938.64;;;18.14;94.94
41306;BME280;27051;50.376;19.152;2023-06-10T02:35:22;97939.87;;;18.18;94.92
41306;BME280;27051;50.376;19.152;2023-06-10T02:38:03;97937.85;;;18.19;94.94
41306;BME280;27051;50.376;19.152;2023-06-10T02:40:30;97938.46;;;18.21;94.41
41306;BME280;27051;50.376;19.152;2023-06-10T02:42:58;97936.38;;;18.19;94.25
41306;BME280;27051;50.376;19.152;2023-06-10T02:45:26;97936.22;;;18.19;94.43
41306;BME280;27051;50.376;19.152;2023-06-10T02:47:53;97934.35;;;18.19;94.28
41306;BME280;27051;50.376;19.152;2023-06-10T02:53:03;97936.84;;;18.20;94.01
41306;BME280;27051;50.376;19.152;2023-06-10T02:55:30;97939.86;;;18.20;94.20
41306;BME280;27051;50.376;19.152;2023-06-10T02:57:57;97943.59;;;18.22;93.95
41306;BME280;27051;50.376;19.152;2023-06-10T03:00:23;97941.17;;;18.24;94.06
41306;BME280;27051;50.376;19.152;2023-06-10T03:03:18;97945.52;;;18.27;93.86
41306;BME280;27051;50.376;19.152;2023-06-10T03:05:46;97951.96;;;18.29;93.83
41306;BME280;27051;50.376;19.152;2023-06-10T03:08:45;97950.55;;;18.33;93.70
41306;BME280;27051;50.376;19.152;2023-06-10T03:11:38;97951.80;;;18.33;93.69
41306;BME280;27051;50.376;19.152;2023-06-10T03:14:48;97951.33;;;18.31;93.29
41306;BME280;27051;50.376;19.152;2023-06-10T03:19:59;97952.97;;;18.30;93.51
41306;BME280;27051;50.376;19.152;2023-06-10T03:22:27;97952.65;;;18.34;93.60
41306;BME280;27051;50.376;19.152;2023-06-10T03:27:53;97948.91;;;18.39;93.29
41306;BME280;27051;50.376;19.152;2023-06-10T03:30:59;97952.48;;;18.41;93.05
41306;BME280;27051;50.376;19.152;2023-06-10T03:34:05;97951.77;;;18.41;92.89
41306;BME280;27051;50.376;19.152;2023-06-10T03:36:58;97954.81;;;18.39;92.54
41306;BME280;27051;50.376;19.152;2023-06-10T03:39:25;97955.58;;;18.41;92.77
41306;BME280;27051;50.376;19.152;2023-06-10T03:41:58;97959.23;;;18.42;92.78
41306;BME280;27051;50.376;19.152;2023-06-10T03:44:25;97962.49;;;18.43;92.49
41306;BME280;27051;50.376;19.152;2023-06-10T03:46:52;97967.63;;;18.42;92.21
41306;BME280;27051;50.376;19.152;2023-06-10T03:49:28;97972.38;;;18.42;92.25
41306;BME280;27051;50.376;19.152;2023-06-10T03:51:55;97974.63;;;18.43;92.10
41306;BME280;27051;50.376;19.152;2023-06-10T03:54:22;97975.32;;;18.45;92.19
41306;BME280;27051;50.376;19.152;2023-06-10T03:56:48;97979.44;;;18.47;92.04
41306;BME280;27051;50.376;19.152;2023-06-10T03:59:48;97980.66;;;18.49;91.97
41306;BME280;27051;50.376;19.152;2023-06-10T04:02:35;97978.41;;;18.51;92.15
41306;BME280;27051;50.376;19.152;2023-06-10T04:05:26;97978.30;;;18.58;92.33
41306;BME280;27051;50.376;19.152;2023-06-10T04:10:44;97980.14;;;18.67;91.75
41306;BME280;27051;50.376;19.152;2023-06-10T04:14:17;97978.26;;;18.69;91.69
41306;BME280;27051;50.376;19.152;2023-06-10T04:16:28;97982.52;;;18.71;91.29
41306;BME280;27051;50.376;19.152;2023-06-10T04:19:17;97983.22;;;18.71;91.18
41306;BME280;27051;50.376;19.152;2023-06-10T04:21:44;97980.58;;;18.71;91.00
41306;BME280;27051;50.376;19.152;2023-06-10T04:24:11;97979.48;;;18.72;90.81
41306;BME280;27051;50.376;19.152;2023-06-10T04:26:38;97981.05;;;18.74;91.03
41306;BME280;27051;50.376;19.152;2023-06-10T04:29:07;97985.33;;;18.75;90.89
41306;BME280;27051;50.376;19.152;2023-06-10T04:31:34;97980.48;;;18.79;91.06
41306;BME280;27051;50.376;19.152;2023-06-10T04:34:42;97980.70;;;18.86;91.04
41306;BME280;27051;50.376;19.152;2023-06-10T04:40:09;97987.80;;;18.96;90.77
41306;BME280;27051;50.376;19.152;2023-06-10T04:42:57;97987.69;;;19.02;90.94
41306;BME280;27051;50.376;19.152;2023-06-10T04:45:47;97990.21;;;19.07;90.51
41306;BME280;27051;50.376;19.152;2023-06-10T04:48:14;97990.91;;;19.08;90.15
41306;BME280;27051;50.376;19.152;2023-06-10T04:51:23;97991.73;;;19.13;90.26
41306;BME280;27051;50.376;19.152;2023-06-10T04:53:49;97990.39;;;19.18;89.87
41306;BME280;27051;50.376;19.152;2023-06-10T04:56:22;97995.45;;;19.20;90.04
41306;BME280;27051;50.376;19.152;2023-06-10T05:02:19;97995.52;;;19.22;89.53
41306;BME280;27051;50.376;19.152;2023-06-10T05:04:56;97993.17;;;19.24;89.24
41306;BME280;27051;50.376;19.152;2023-06-10T05:07:26;97999.46;;;19.27;89.37
41306;BME280;27051;50.376;19.152;2023-06-10T05:09:53;97999.68;;;19.29;89.27
41306;BME280;27051;50.376;19.152;2023-06-10T05:12:42;98001.29;;;19.33;89.33
41306;BME280;27051;50.376;19.152;2023-06-10T05:16:12;98002.44;;;19.37;89.06
41306;BME280;27051;50.376;19.152;2023-06-10T05:18:46;98002.23;;;19.44;89.16
41306;BME280;27051;50.376;19.152;2023-06-10T05:21:45;98004.54;;;19.48;88.84
41306;BME280;27051;50.376;19.152;2023-06-10T05:24:14;98006.36;;;19.53;88.81
41306;BME280;27051;50.376;19.152;2023-06-10T05:26:40;98006.56;;;19.58;88.50
41306;BME280;27051;50.376;19.152;2023-06-10T05:29:07;98007.38;;;19.63;88.66
41306;BME280;27051;50.376;19.152;2023-06-10T05:31:34;98004.36;;;19.73;88.46
41306;BME280;27051;50.376;19.152;2023-06-10T05:34:01;98005.27;;;19.80;88.12
41306;BME280;27051;50.376;19.152;2023-06-10T05:36:35;98003.86;;;19.79;87.50
41306;BME280;27051;50.376;19.152;2023-06-10T05:39:02;98003.45;;;19.81;87.14
41306;BME280;27051;50.376;19.152;2023-06-10T05:41:38;98008.09;;;19.85;87.52
41306;BME280;27051;50.376;19.152;2023-06-10T05:44:05;98009.85;;;19.89;87.17
41306;BME280;27051;50.376;19.152;2023-06-10T05:46:32;98014.35;;;19.92;87.16
41306;BME280;27051;50.376;19.152;2023-06-10T05:49:02;98018.69;;;19.94;86.35
41306;BME280;27051;50.376;19.152;2023-06-10T05:51:28;98020.58;;;19.92;85.68
41306;BME280;27051;50.376;19.152;2023-06-10T05:53:55;98023.27;;;19.95;86.34
41306;BME280;27051;50.376;19.152;2023-06-10T05:56:22;98026.02;;;20.03;86.43
41306;BME280;27051;50.376;19.152;2023-06-10T05:58:49;98028.53;;;20.08;86.31
41306;BME280;27051;50.376;19.152;2023-06-10T06:01:16;98030.09;;;20.08;86.31
41306;BME280;27051;50.376;19.152;2023-06-10T06:03:43;98034.15;;;20.07;85.89
41306;BME280;27051;50.376;19.152;2023-06-10T06:06:18;98036.38;;;20.03;85.05
41306;BME280;27051;50.376;19.152;2023-06-10T06:08:45;98036.48;;;20.01;85.77
41306;BME280;27051;50.376;19.152;2023-06-10T06:11:34;98036.57;;;20.07;86.01
41306;BME280;27051;50.376;19.152;2023-06-10T06:14:02;98037.06;;;20.13;85.55
41306;BME280;27051;50.376;19.152;2023-06-10T06:16:32;98040.77;;;20.18;85.39
41306;BME280;27051;50.376;19.152;2023-06-10T06:18:59;98042.47;;;20.28;85.16
41306;BME280;27051;50.376;19.152;2023-06-10T06:21:26;98044.73;;;20.35;84.98
41306;BME280;27051;50.376;19.152;2023-06-10T06:23:53;98045.30;;;20.41;84.94
41306;BME280;27051;50.376;19.152;2023-06-10T06:26:20;98042.25;;;20.49;84.90
41306;BME280;27051;50.376;19.152;2023-06-10T06:28:57;98046.04;;;20.52;83.46
41306;BME280;27051;50.376;19.152;2023-06-10T06:31:24;98047.19;;;20.46;82.89
41306;BME280;27051;50.376;19.152;2023-06-10T06:33:54;98047.46;;;20.43;82.81
41306;BME280;27051;50.376;19.152;2023-06-10T06:36:21;98051.70;;;20.41;82.89
41306;BME280;27051;50.376;19.152;2023-06-10T06:38:48;98052.11;;;20.44;83.43
41306;BME280;27051;50.376;19.152;2023-06-10T06:41:14;98052.80;;;20.48;83.41
41306;BME280;27051;50.376;19.152;2023-06-10T06:43:41;98054.55;;;20.51;83.14
41306;BME280;27051;50.376;19.152;2023-06-10T06:46:09;98060.62;;;20.54;82.76
41306;BME280;27051;50.376;19.152;2023-06-10T06:48:36;98065.94;;;20.61;82.93
41306;BME280;27051;50.376;19.152;2023-06-10T06:51:03;98067.18;;;20.70;83.14
41306;BME280;27051;50.376;19.152;2023-06-10T06:53:30;98071.60;;;20.78;83.02
41306;BME280;27051;50.376;19.152;2023-06-10T06:55:56;98069.40;;;20.87;82.83
41306;BME280;27051;50.376;19.152;2023-06-10T06:58:23;98065.30;;;20.96;82.29
41306;BME280;27051;50.376;19.152;2023-06-10T07:03:35;98074.64;;;21.12;80.97
41306;BME280;27051;50.376;19.152;2023-06-10T07:06:12;98073.55;;;21.11;80.44
41306;BME280;27051;50.376;19.152;2023-06-10T07:08:41;98081.42;;;21.07;80.44
41306;BME280;27051;50.376;19.152;2023-06-10T07:11:08;98084.46;;;21.07;80.59
41306;BME280;27051;50.376;19.152;2023-06-10T07:13:38;98081.45;;;21.10;80.92
41306;BME280;27051;50.376;19.152;2023-06-10T07:16:15;98081.02;;;21.14;80.97
41306;BME280;27051;50.376;19.152;2023-06-10T07:18:42;98081.90;;;21.18;80.35
41306;BME280;27051;50.376;19.152;2023-06-10T07:21:13;98081.46;;;21.23;80.05
41306;BME280;27051;50.376;19.152;2023-06-10T07:23:43;98083.56;;;21.29;79.90
41306;BME280;27051;50.376;19.152;2023-06-10T07:26:10;98085.52;;;21.34;79.15
41306;BME280;27051;50.376;19.152;2023-06-10T07:28:37;98089.72;;;21.36;79.28
41306;BME280;27051;50.376;19.152;2023-06-10T07:31:04;98092.52;;;21.39;78.84
41306;BME280;27051;50.376;19.152;2023-06-10T07:33:31;98089.30;;;21.40;78.96
41306;BME280;27051;50.376;19.152;2023-06-10T07:35:58;98090.00;;;21.39;78.39
41306;BME280;27051;50.376;19.152;2023-06-10T07:38:27;98091.64;;;21.26;77.41
41306;BME280;27051;50.376;19.152;2023-06-10T07:40:54;98097.55;;;21.15;77.77
41306;BME280;27051;50.376;19.152;2023-06-10T07:43:21;98093.71;;;21.05;77.68
41306;BME280;27051;50.376;19.152;2023-06-10T07:45:48;98098.98;;;21.00;77.14
41306;BME280;27051;50.376;19.152;2023-06-10T07:48:17;98095.92;;;20.95;77.90
41306;BME280;27051;50.376;19.152;2023-06-10T07:50:44;98095.80;;;20.99;78.10
41306;BME280;27051;50.376;19.152;2023-06-10T07:53:11;98095.71;;;21.06;78.11
41306;BME280;27051;50.376;19.152;2023-06-10T07:55:38;98099.98;;;21.16;78.01
41306;BME280;27051;50.376;19.152;2023-06-10T07:58:05;98101.80;;;21.31;77.82
41306;BME280;27051;50.376;19.152;2023-06-10T08:00:32;98104.63;;;21.45;77.43
41306;BME280;27051;50.376;19.152;2023-06-10T08:03:02;98106.60;;;21.60;77.31
41306;BME280;27051;50.376;19.152;2023-06-10T08:05:29;98107.55;;;21.71;77.21
41306;BME280;27051;50.376;19.152;2023-06-10T08:07:56;98113.45;;;21.73;76.55
41306;BME280;27051;50.376;19.152;2023-06-10T08:10:22;98113.95;;;21.76;77.12
41306;BME280;27051;50.376;19.152;2023-06-10T08:12:50;98117.41;;;21.80;76.82
41306;BME280;27051;50.376;19.152;2023-06-10T08:15:16;98118.67;;;21.79;76.69
41306;BME280;27051;50.376;19.152;2023-06-10T08:17:44;98117.54;;;21.82;76.79
41306;BME280;27051;50.376;19.152;2023-06-10T08:20:11;98113.08;;;21.88;76.54
41306;BME280;27051;50.376;19.152;2023-06-10T08:22:40;98109.87;;;21.98;76.59
41306;BME280;27051;50.376;19.152;2023-06-10T08:25:08;98113.60;;;22.05;75.50
41306;BME280;27051;50.376;19.152;2023-06-10T08:28:01;98115.64;;;22.15;75.74
41306;BME280;27051;50.376;19.152;2023-06-10T08:30:29;98115.23;;;22.27;75.29
41306;BME280;27051;50.376;19.152;2023-06-10T08:36:03;98118.68;;;22.49;75.22
41306;BME280;27051;50.376;19.152;2023-06-10T08:38:30;98117.17;;;22.63;75.14
41306;BME280;27051;50.376;19.152;2023-06-10T08:41:01;98117.70;;;22.78;74.96
41306;BME280;27051;50.376;19.152;2023-06-10T08:43:45;98118.48;;;22.90;74.34
41306;BME280;27051;50.376;19.152;2023-06-10T08:46:14;98124.15;;;22.98;73.49
41306;BME280;27051;50.376;19.152;2023-06-10T08:48:57;98130.73;;;23.02;73.39
41306;BME280;27051;50.376;19.152;2023-06-10T08:51:35;98129.12;;;23.16;73.60
41306;BME280;27051;50.376;19.152;2023-06-10T08:54:17;98132.67;;;23.31;73.09
41306;BME280;27051;50.376;19.152;2023-06-10T08:56:47;98135.73;;;23.38;71.70
41306;BME280;27051;50.376;19.152;2023-06-10T08:59:15;98134.36;;;23.40;71.85
41306;BME280;27051;50.376;19.152;2023-06-10T09:01:52;98135.20;;;23.45;71.74
41306;BME280;27051;50.376;19.152;2023-06-10T09:04:19;98129.61;;;23.60;72.10
41306;BME280;27051;50.376;19.152;2023-06-10T09:06:49;98132.50;;;23.72;71.14
41306;BME280;27051;50.376;19.152;2023-06-10T09:09:17;98130.92;;;23.77;70.38
41306;BME280;27051;50.376;19.152;2023-06-10T09:11:45;98134.77;;;23.87;70.47
41306;BME280;27051;50.376;19.152;2023-06-10T09:14:12;98129.73;;;24.05;69.69
41306;BME280;27051;50.376;19.152;2023-06-10T09:16:40;98133.21;;;24.29;69.35
41306;BME280;27051;50.376;19.152;2023-06-10T09:19:08;98135.59;;;24.61;69.36
41306;BME280;27051;50.376;19.152;2023-06-10T09:21:35;98134.45;;;24.95;69.07
41306;BME280;27051;50.376;19.152;2023-06-10T09:24:03;98137.89;;;25.41;68.40
41306;BME280;27051;50.376;19.152;2023-06-10T09:27:03;98131.42;;;26.10;68.32
41306;BME280;27051;50.376;19.152;2023-06-10T09:29:30;98131.80;;;26.98;64.55
41306;BME280;27051;50.376;19.152;2023-06-10T09:31:57;98137.85;;;27.49;63.92
41306;BME280;27051;50.376;19.152;2023-06-10T09:34:25;98138.41;;;27.69;63.62
41306;BME280;27051;50.376;19.152;2023-06-10T09:36:57;98137.80;;;27.69;62.28
41306;BME280;27051;50.376;19.152;2023-06-10T09:39:26;98140.86;;;27.49;61.67
41306;BME280;27051;50.376;19.152;2023-06-10T09:41:54;98144.02;;;27.17;61.07
41306;BME280;27051;50.376;19.152;2023-06-10T09:44:23;98141.14;;;26.85;61.13
41306;BME280;27051;50.376;19.152;2023-06-10T09:46:50;98141.42;;;26.54;60.61
41306;BME280;27051;50.376;19.152;2023-06-10T09:49:17;98145.09;;;26.18;59.85
41306;BME280;27051;50.376;19.152;2023-06-10T09:51:49;98143.03;;;25.83;59.22
41306;BME280;27051;50.376;19.152;2023-06-10T09:54:16;98142.48;;;25.48;60.26
41306;BME280;27051;50.376;19.152;2023-06-10T09:56:43;98139.14;;;25.42;61.11
41306;BME280;27051;50.376;19.152;2023-06-10T09:59:09;98137.04;;;25.46;60.54
41306;BME280;27051;50.376;19.152;2023-06-10T10:01:36;98133.71;;;25.58;61.38
41306;BME280;27051;50.376;19.152;2023-06-10T10:04:03;98130.80;;;25.73;61.57
41306;BME280;27051;50.376;19.152;2023-06-10T10:06:30;98135.59;;;25.95;59.71
41306;BME280;27051;50.376;19.152;2023-06-10T10:08:57;98128.83;;;26.15;59.44
41306;BME280;27051;50.376;19.152;2023-06-10T10:11:24;98128.17;;;26.45;59.23
41306;BME280;27051;50.376;19.152;2023-06-10T10:13:52;98127.05;;;27.11;58.84
41306;BME280;27051;50.376;19.152;2023-06-10T10:16:21;98125.69;;;28.18;59.75
41306;BME280;27051;50.376;19.152;2023-06-10T10:18:54;98122.05;;;29.33;57.65
41306;BME280;27051;50.376;19.152;2023-06-10T10:21:26;98126.42;;;30.24;56.43
41306;BME280;27051;50.376;19.152;2023-06-10T10:24:03;98129.52;;;30.72;54.24
41306;BME280;27051;50.376;19.152;2023-06-10T10:26:32;98124.24;;;30.60;52.56
41306;BME280;27051;50.376;19.152;2023-06-10T10:29:14;98126.98;;;30.29;53.43
41306;BME280;27051;50.376;19.152;2023-06-10T10:31:43;98125.45;;;29.92;51.57
41306;BME280;27051;50.376;19.152;2023-06-10T10:34:14;98123.45;;;29.53;52.67
41306;BME280;27051;50.376;19.152;2023-06-10T10:36:42;98125.86;;;29.42;52.77
41306;BME280;27051;50.376;19.152;2023-06-10T10:39:11;98117.08;;;29.47;51.36
41306;BME280;27051;50.376;19.152;2023-06-10T10:41:38;98116.48;;;29.56;51.95
41306;BME280;27051;50.376;19.152;2023-06-10T10:44:06;98118.52;;;29.73;51.38
41306;BME280;27051;50.376;19.152;2023-06-10T10:46:49;98118.86;;;29.95;50.38
41306;BME280;27051;50.376;19.152;2023-06-10T10:49:17;98115.80;;;30.07;49.58
41306;BME280;27051;50.376;19.152;2023-06-10T10:51:58;98113.48;;;30.14;47.98
41306;BME280;27051;50.376;19.152;2023-06-10T10:54:33;98104.16;;;30.80;49.05
41306;BME280;27051;50.376;19.152;2023-06-10T11:02:17;98090.88;;;33.21;45.28
41306;BME280;27051;50.376;19.152;2023-06-10T11:04:48;98093.76;;;33.79;44.76
41306;BME280;27051;50.376;19.152;2023-06-10T11:07:20;98087.45;;;34.27;43.00
41306;BME280;27051;50.376;19.152;2023-06-10T11:10:10;98086.33;;;34.61;41.58
41306;BME280;27051;50.376;19.152;2023-06-10T11:12:56;98081.52;;;34.83;39.32
41306;BME280;27051;50.376;19.152;2023-06-10T11:15:28;98089.27;;;35.05;39.45
41306;BME280;27051;50.376;19.152;2023-06-10T11:18:20;98080.16;;;35.18;39.46
41306;BME280;27051;50.376;19.152;2023-06-10T11:31:29;98067.67;;;37.31;33.71
41306;BME280;27051;50.376;19.152;2023-06-10T11:34:07;98069.80;;;37.34;34.56
41306;BME280;27051;50.376;19.152;2023-06-10T11:36:44;98067.86;;;37.65;34.32
41306;BME280;27051;50.376;19.152;2023-06-10T11:39:12;98060.98;;;38.00;34.11
41306;BME280;27051;50.376;19.152;2023-06-10T11:41:39;98071.00;;;38.49;33.36
41306;BME280;27051;50.376;19.152;2023-06-10T11:44:12;98069.94;;;38.59;32.41
41306;BME280;27051;50.376;19.152;2023-06-10T11:46:40;98062.09;;;38.70;31.77
41306;BME280;27051;50.376;19.152;2023-06-10T11:49:07;98064.11;;;39.06;31.39
41306;BME280;27051;50.376;19.152;2023-06-10T11:51:36;98066.05;;;39.03;30.96
41306;BME280;27051;50.376;19.152;2023-06-10T11:54:04;98067.95;;;39.47;30.57
41306;BME280;27051;50.376;19.152;2023-06-10T11:56:31;98063.90;;;39.79;29.33
41306;BME280;27051;50.376;19.152;2023-06-10T11:59:06;98054.74;;;40.29;29.27
41306;BME280;27051;50.376;19.152;2023-06-10T12:01:35;98053.49;;;40.68;27.66
41306;BME280;27051;50.376;19.152;2023-06-10T12:04:13;98047.40;;;41.04;28.48
41306;BME280;27051;50.376;19.152;2023-06-10T12:06:53;98046.92;;;40.66;28.71
41306;BME280;27051;50.376;19.152;2023-06-10T12:09:29;98050.60;;;39.71;28.30
41306;BME280;27051;50.376;19.152;2023-06-10T12:12:00;98058.27;;;39.34;28.29
41306;BME280;27051;50.376;19.152;2023-06-10T12:15:05;98061.56;;;39.02;28.47
41306;BME280;27051;50.376;19.152;2023-06-10T12:20:00;98061.27;;;37.51;28.61
41306;BME280;27051;50.376;19.152;2023-06-10T12:22:39;98056.27;;;36.96;28.83
41306;BME280;27051;50.376;19.152;2023-06-10T12:25:08;98056.86;;;37.57;28.51
41306;BME280;27051;50.376;19.152;2023-06-10T12:27:36;98057.62;;;38.37;28.79
41306;BME280;27051;50.376;19.152;2023-06-10T12:30:05;98058.30;;;39.21;28.55
41306;BME280;27051;50.376;19.152;2023-06-10T12:32:43;98056.00;;;39.99;27.78
41306;BME280;27051;50.376;19.152;2023-06-10T12:35:11;98052.73;;;40.46;26.66
41306;BME280;27051;50.376;19.152;2023-06-10T12:37:42;98052.73;;;40.58;26.59
41306;BME280;27051;50.376;19.152;2023-06-10T12:40:10;98053.38;;;40.13;26.94
41306;BME280;27051;50.376;19.152;2023-06-10T12:42:39;98054.16;;;39.83;26.71
41306;BME280;27051;50.376;19.152;2023-06-10T12:45:07;98047.02;;;40.36;26.67
41306;BME280;27051;50.376;19.152;2023-06-10T12:47:35;98041.97;;;40.69;25.55
41306;BME280;27051;50.376;19.152;2023-06-10T12:50:15;98041.36;;;41.01;25.71
41306;BME280;27051;50.376;19.152;2023-06-10T12:52:46;98045.06;;;41.68;26.05
41306;BME280;27051;50.376;19.152;2023-06-10T12:55:13;98047.08;;;41.97;25.68
41306;BME280;27051;50.376;19.152;2023-06-10T12:57:47;98041.92;;;41.34;25.65
41306;BME280;27051;50.376;19.152;2023-06-10T13:00:15;98043.41;;;40.00;25.91
41306;BME280;27051;50.376;19.152;2023-06-10T13:02:43;98048.52;;;38.51;26.16
41306;BME280;27051;50.376;19.152;2023-06-10T13:05:12;98044.52;;;37.09;27.47
41306;BME280;27051;50.376;19.152;2023-06-10T13:07:41;98036.02;;;35.86;28.28
41306;BME280;27051;50.376;19.152;2023-06-10T13:10:07;98037.95;;;35.34;29.01
41306;BME280;27051;50.376;19.152;2023-06-10T13:12:34;98035.41;;;35.32;29.42
41306;BME280;27051;50.376;19.152;2023-06-10T13:15:01;98033.89;;;35.26;29.46
41306;BME280;27051;50.376;19.152;2023-06-10T13:17:44;98031.27;;;34.90;29.87
41306;BME280;27051;50.376;19.152;2023-06-10T13:20:11;98030.11;;;34.90;30.06
41306;BME280;27051;50.376;19.152;2023-06-10T13:22:39;98029.45;;;36.05;29.90
41306;BME280;27051;50.376;19.152;2023-06-10T13:25:08;98030.89;;;36.72;29.96
41306;BME280;27051;50.376;19.152;2023-06-10T13:27:35;98024.59;;;36.69;30.30
41306;BME280;27051;50.376;19.152;2023-06-10T13:30:03;98028.55;;;36.06;30.54
41306;BME280;27051;50.376;19.152;2023-06-10T13:32:29;98030.83;;;35.42;31.06
41306;BME280;27051;50.376;19.152;2023-06-10T13:34:56;98029.58;;;34.79;31.63
41306;BME280;27051;50.376;19.152;2023-06-10T13:37:23;98024.30;;;34.82;31.78
41306;BME280;27051;50.376;19.152;2023-06-10T13:39:49;98025.89;;;35.91;31.44
41306;BME280;27051;50.376;19.152;2023-06-10T13:42:17;98025.42;;;36.87;31.03
41306;BME280;27051;50.376;19.152;2023-06-10T13:44:44;98025.55;;;37.30;30.58
41306;BME280;27051;50.376;19.152;2023-06-10T13:47:11;98031.29;;;36.94;30.73
41306;BME280;27051;50.376;19.152;2023-06-10T13:49:38;98029.88;;;36.13;30.70
41306;BME280;27051;50.376;19.152;2023-06-10T13:52:06;98028.40;;;35.09;31.33
41306;BME280;27051;50.376;19.152;2023-06-10T13:54:42;98040.08;;;34.28;31.92
41306;BME280;27051;50.376;19.152;2023-06-10T13:57:08;98045.73;;;33.33;32.19
41306;BME280;27051;50.376;19.152;2023-06-10T13:59:35;98049.42;;;32.31;33.27
41306;BME280;27051;50.376;19.152;2023-06-10T14:02:02;98065.28;;;31.23;34.17
41306;BME280;27051;50.376;19.152;2023-06-10T14:04:28;98089.31;;;30.15;34.78
41306;BME280;27051;50.376;19.152;2023-06-10T14:06:55;98091.58;;;29.22;35.66
41306;BME280;27051;50.376;19.152;2023-06-10T14:09:22;98085.50;;;28.47;36.78
41306;BME280;27051;50.376;19.152;2023-06-10T14:11:48;98079.67;;;27.75;37.67
41306;BME280;27051;50.376;19.152;2023-06-10T14:14:15;98076.95;;;27.13;38.10
41306;BME280;27051;50.376;19.152;2023-06-10T14:16:42;98068.16;;;26.71;39.10